createdAt,value
2018-09-13T00:01:12.440Z,101882.98
2018-09-13T00:03:42.031Z,101886.73
2018-09-13T00:06:11.510Z,101886.67
2018-09-13T00:08:40.945Z,101886.63
2018-09-13T00:11:10.434Z,101885.23
2018-09-13T00:13:39.892Z,101878.98
2018-09-13T00:16:09.371Z,101881.78
2018-09-13T00:18:38.784Z,101885.81
2018-09-13T00:21:08.234Z,101890.45
2018-09-13T00:23:37.776Z,101887.91
2018-09-13T00:26:07.230Z,101883.03
2018-09-13T00:28:36.661Z,101880.09
2018-09-13T00:31:06.230Z,101876.36
2018-09-13T00:33:35.690Z,101871.43
2018-09-13T00:36:05.185Z,101866.02
2018-09-13T00:38:34.682Z,101875.22
2018-09-13T00:41:04.084Z,101873.45
2018-09-13T00:43:33.502Z,101871.86
2018-09-13T00:46:02.978Z,101868.59
2018-09-13T00:48:32.476Z,101866.43
2018-09-13T00:51:01.939Z,101867.68
2018-09-13T00:53:31.439Z,101869.00
2018-09-13T00:56:01.015Z,101862.00
2018-09-13T00:58:30.510Z,101863.28
2018-09-13T01:01:00.008Z,101860.38
2018-09-13T01:03:29.487Z,101864.25
2018-09-13T01:05:59.007Z,101859.67
2018-09-13T01:08:28.430Z,101861.30
2018-09-13T01:10:57.865Z,101858.80
2018-09-13T01:13:27.385Z,101861.41
2018-09-13T01:15:56.817Z,101857.68
2018-09-13T01:18:26.340Z,101861.43
2018-09-13T01:20:55.845Z,101865.84
2018-09-13T01:23:25.283Z,101861.70
2018-09-13T01:25:54.742Z,101852.36
2018-09-13T01:28:24.513Z,101848.95
2018-09-13T01:30:54.000Z,101854.31
2018-09-13T01:33:23.514Z,101852.03
2018-09-13T01:35:52.988Z,101845.11
2018-09-13T01:38:22.400Z,101840.48
2018-09-13T01:40:51.820Z,101846.13
2018-09-13T01:43:21.294Z,101852.38
2018-09-13T01:45:50.720Z,101850.75
2018-09-13T01:48:20.136Z,101845.75
2018-09-13T01:50:49.648Z,101854.47
2018-09-13T01:53:19.125Z,101847.78
2018-09-13T01:55:48.585Z,101845.91
2018-09-13T01:58:18.144Z,101849.80
2018-09-13T02:00:47.572Z,101845.66
2018-09-13T02:03:16.989Z,101848.56
2018-09-13T02:05:46.463Z,101849.42
2018-09-13T02:08:15.894Z,101847.05
2018-09-13T02:10:45.413Z,101849.08
2018-09-13T02:13:14.849Z,101845.80
2018-09-13T02:15:44.393Z,101844.11
2018-09-13T02:18:13.920Z,101845.80
2018-09-13T02:20:43.353Z,101846.22
2018-09-13T02:23:12.862Z,101842.99
2018-09-13T02:25:42.370Z,101844.24
2018-09-13T02:28:11.841Z,101842.61
2018-09-13T02:30:41.320Z,101841.08
2018-09-13T02:33:10.896Z,101838.47
2018-09-13T02:35:40.360Z,101842.14
2018-09-13T02:38:09.846Z,101836.35
2018-09-13T02:40:39.446Z,101842.99
2018-09-13T02:43:08.922Z,101840.95
2018-09-13T02:45:38.418Z,101844.00
2018-09-13T02:48:07.956Z,101849.89
2018-09-13T02:50:37.430Z,101839.90
2018-09-13T02:53:07.002Z,101837.62
2018-09-13T02:55:36.507Z,101841.28
2018-09-13T02:58:05.962Z,101837.39
2018-09-13T03:00:35.431Z,101846.13
2018-09-13T03:03:04.917Z,101847.36
2018-09-13T03:05:34.341Z,101850.73
2018-09-13T03:08:03.849Z,101845.28
2018-09-13T03:10:33.310Z,101847.37
2018-09-13T03:13:02.878Z,101845.49
2018-09-13T03:15:32.424Z,101846.03
2018-09-13T03:18:01.869Z,101850.40
2018-09-13T03:20:31.369Z,101837.41
2018-09-13T03:23:00.884Z,101848.56
2018-09-13T03:25:30.371Z,101849.86
2018-09-13T03:27:59.843Z,101849.11
2018-09-13T03:30:29.359Z,101843.14
2018-09-13T03:32:58.902Z,101848.40
2018-09-13T03:35:28.394Z,101846.91
2018-09-13T03:37:57.889Z,101856.20
2018-09-13T03:40:27.399Z,101856.34
2018-09-13T03:42:56.911Z,101851.07
2018-09-13T03:45:26.419Z,101854.58
2018-09-13T03:47:55.890Z,101848.06
2018-09-13T03:50:25.402Z,101852.62
2018-09-13T03:52:54.897Z,101855.97
2018-09-13T03:55:24.440Z,101851.75
2018-09-13T03:57:53.926Z,101854.52
2018-09-13T04:00:23.488Z,101848.19
2018-09-13T04:02:53.117Z,101851.09
2018-09-13T04:05:22.848Z,101847.73
2018-09-13T04:07:52.477Z,101849.06
2018-09-13T04:10:22.033Z,101840.84
2018-09-13T04:12:51.661Z,101838.00
2018-09-13T04:15:21.189Z,101834.01
2018-09-13T04:17:50.701Z,101840.78
2018-09-13T04:20:20.193Z,101843.30
2018-09-13T04:22:50.406Z,101843.30
2018-09-13T04:25:19.849Z,101845.52
2018-09-13T04:27:49.274Z,101846.42
2018-09-13T04:30:18.749Z,101839.39
2018-09-13T04:32:48.192Z,101836.52
2018-09-13T04:35:18.008Z,101842.22
2018-09-13T04:37:47.473Z,101839.72
2018-09-13T04:40:17.062Z,101842.62
2018-09-13T04:42:46.640Z,101842.30
2018-09-13T04:45:16.069Z,101843.22
2018-09-13T04:47:45.525Z,101846.52
2018-09-13T04:50:15.055Z,101848.21
2018-09-13T04:52:44.809Z,101849.51
2018-09-13T04:55:14.238Z,101842.88
2018-09-13T04:57:44.191Z,101845.72
2018-09-13T05:00:13.744Z,101846.77
2018-09-13T05:02:43.170Z,101842.41
2018-09-13T05:05:12.661Z,101841.86
2018-09-13T05:07:42.182Z,101843.05
2018-09-13T05:10:11.759Z,101848.48
2018-09-13T05:12:41.381Z,101847.69
2018-09-13T05:15:11.021Z,101853.48
2018-09-13T05:17:40.635Z,101851.83
2018-09-13T05:20:10.702Z,101848.09
2018-09-13T05:22:40.149Z,101848.94
2018-09-13T05:25:09.830Z,101851.45
2018-09-13T05:27:39.317Z,101856.92
2018-09-13T05:30:09.150Z,101856.90
2018-09-13T05:32:38.757Z,101855.12
2018-09-13T05:35:08.374Z,101855.91
2018-09-13T05:37:37.966Z,101860.97
2018-09-13T05:40:07.401Z,101858.88
2018-09-13T05:42:36.933Z,101862.67
2018-09-13T05:45:06.686Z,101865.09
2018-09-13T05:47:36.103Z,101866.91
2018-09-13T05:50:05.734Z,101868.37
2018-09-13T05:52:35.193Z,101867.33
2018-09-13T05:55:04.722Z,101861.22
2018-09-13T05:57:34.417Z,101861.69
2018-09-13T06:00:04.150Z,101867.59
2018-09-13T06:02:33.666Z,101868.65
2018-09-13T06:05:03.189Z,101873.33
2018-09-13T06:07:32.786Z,101874.06
2018-09-13T06:10:02.387Z,101868.27
2018-09-13T06:12:31.906Z,101874.17
2018-09-13T06:15:01.398Z,101868.80
2018-09-13T06:17:30.878Z,101870.17
2018-09-13T06:20:00.369Z,101872.35
2018-09-13T06:22:29.859Z,101872.93
2018-09-13T06:24:59.321Z,101875.50
2018-09-13T06:27:28.795Z,101876.03
2018-09-13T06:29:58.271Z,101883.64
2018-09-13T06:32:27.750Z,101881.77
2018-09-13T06:34:57.352Z,101879.38
2018-09-13T06:37:26.904Z,101884.09
2018-09-13T06:39:56.381Z,101881.28
2018-09-13T06:42:25.908Z,101887.70
2018-09-13T06:44:55.431Z,101886.98
2018-09-13T06:47:25.162Z,101885.83
2018-09-13T06:49:54.731Z,101885.55
2018-09-13T06:52:24.428Z,101886.91
2018-09-13T06:54:54.014Z,101882.45
2018-09-13T06:57:23.601Z,101886.73
2018-09-13T06:59:53.202Z,101881.83
2018-09-13T07:02:22.755Z,101881.13
2018-09-13T07:04:52.408Z,101878.33
2018-09-13T07:07:21.923Z,101888.14
2018-09-13T07:09:51.488Z,101882.91
2018-09-13T07:12:20.961Z,101888.97
2018-09-13T07:14:50.534Z,101879.64
2018-09-13T07:17:20.124Z,101885.19
2018-09-13T07:19:49.634Z,101884.47
2018-09-13T07:22:19.105Z,101884.98
2018-09-13T07:24:48.620Z,101885.43
2018-09-13T07:27:18.073Z,101887.58
2018-09-13T07:29:48.025Z,101875.92
2018-09-13T07:32:17.717Z,101877.25
2018-09-13T07:34:47.317Z,101877.73
2018-09-13T07:37:16.760Z,101878.61
2018-09-13T07:39:46.313Z,101882.38
2018-09-13T07:42:15.913Z,101882.48
2018-09-13T07:44:45.859Z,101872.11
2018-09-13T07:47:15.485Z,101880.20
2018-09-13T07:49:45.107Z,101880.27
2018-09-13T07:52:14.537Z,101880.74
2018-09-13T07:54:44.065Z,101881.59
2018-09-13T07:57:13.561Z,101882.11
2018-09-13T07:59:43.009Z,101885.16
2018-09-13T08:02:12.585Z,101885.28
2018-09-13T08:04:42.109Z,101887.08
2018-09-13T08:07:11.671Z,101885.89
2018-09-13T08:09:41.153Z,101880.59
2018-09-13T08:12:10.700Z,101877.66
2018-09-13T08:14:40.288Z,101882.31
2018-09-13T08:17:09.982Z,101879.45
2018-09-13T08:19:39.382Z,101881.14
2018-09-13T08:22:09.278Z,101879.94
2018-09-13T08:24:38.775Z,101878.28
2018-09-13T08:27:08.475Z,101883.42
2018-09-13T08:29:38.093Z,101884.24
2018-09-13T08:32:07.720Z,101885.95
2018-09-13T08:34:37.323Z,101885.13
2018-09-13T08:37:07.042Z,101877.97
2018-09-13T08:39:36.440Z,101879.30
2018-09-13T08:42:05.936Z,101877.61
2018-09-13T08:44:35.343Z,101864.98
2018-09-13T08:47:04.850Z,101866.64
2018-09-13T08:49:34.488Z,101867.84
2018-09-13T08:52:04.388Z,101864.05
2018-09-13T08:54:33.830Z,101869.95
2018-09-13T08:57:03.461Z,101869.62
2018-09-13T08:59:33.089Z,101865.03
2018-09-13T09:02:02.540Z,101865.44
2018-09-13T09:04:32.601Z,101859.56
2018-09-13T09:07:02.190Z,101865.44
2018-09-13T09:09:31.665Z,101864.20
2018-09-13T09:12:01.164Z,101860.03
2018-09-13T09:14:30.659Z,101862.52
2018-09-13T09:17:00.172Z,101860.05
2018-09-13T09:19:29.808Z,101850.41
2018-09-13T09:21:59.305Z,101851.67
2018-09-13T09:24:28.853Z,101847.50
2018-09-13T09:26:58.450Z,101844.16
2018-09-13T09:29:28.030Z,101845.83
2018-09-13T09:31:57.466Z,101849.17
2018-09-13T09:34:27.160Z,101834.48
2018-09-13T09:36:56.630Z,101838.69
2018-09-13T09:39:26.165Z,101830.61
2018-09-13T09:41:55.829Z,101826.31
2018-09-13T09:44:25.363Z,101824.62
2018-09-13T09:46:55.012Z,101828.77
2018-09-13T09:49:24.603Z,101824.78
2018-09-13T09:51:54.233Z,101824.83
2018-09-13T09:54:23.790Z,101827.63
2018-09-13T09:56:53.198Z,101824.24
2018-09-13T09:59:22.621Z,101823.00
2018-09-13T10:01:57.476Z,101819.52
2018-09-13T10:04:27.020Z,101817.14
2018-09-13T10:06:57.278Z,101818.55
2018-09-13T10:09:26.820Z,101819.52
2018-09-13T10:11:56.521Z,101817.86
2018-09-13T10:14:26.064Z,101817.07
2018-09-13T10:17:00.633Z,101820.90
2018-09-13T10:19:35.463Z,101820.08
2018-09-13T10:22:10.192Z,101821.85
2018-09-13T10:24:45.534Z,101819.32
2018-09-13T10:27:20.884Z,101815.14
2018-09-13T10:29:55.976Z,101821.91
2018-09-13T10:32:30.814Z,101822.72
2018-09-13T10:35:05.494Z,101812.62
2018-09-13T10:37:40.137Z,101809.25
2018-09-13T10:40:14.682Z,101809.16
2018-09-13T10:42:49.331Z,101809.98
2018-09-13T10:45:24.066Z,101807.04
2018-09-13T10:47:58.780Z,101805.72
2018-09-13T10:50:31.616Z,101811.96
2018-09-13T10:53:09.191Z,101808.58
2018-09-13T10:55:38.881Z,101803.45
2018-09-13T10:58:08.352Z,101797.11
2018-09-13T11:00:37.969Z,101795.66
2018-09-13T11:03:07.977Z,101796.39
2018-09-13T11:05:37.693Z,101792.59
2018-09-13T11:08:07.945Z,101795.66
2018-09-13T11:10:37.652Z,101786.84
2018-09-13T11:13:13.447Z,101787.98
2018-09-13T11:15:43.057Z,101788.39
2018-09-13T11:18:12.801Z,101786.41
2018-09-13T11:20:42.281Z,101783.11
2018-09-13T11:23:11.762Z,101783.98
2018-09-13T11:25:41.192Z,101786.56
2018-09-13T11:28:10.845Z,101786.19
2018-09-13T11:30:40.453Z,101781.64
2018-09-13T11:33:10.434Z,101776.54
2018-09-13T11:35:40.254Z,101776.05
2018-09-13T11:38:09.875Z,101770.48
2018-09-13T11:40:39.611Z,101771.25
2018-09-13T11:43:09.102Z,101762.68
2018-09-13T11:45:38.701Z,101766.31
2018-09-13T11:48:08.340Z,101764.54
2018-09-13T11:50:38.261Z,101764.39
2018-09-13T11:53:07.836Z,101757.03
2018-09-13T11:55:44.770Z,101756.08
2018-09-13T11:58:16.067Z,101750.14
2018-09-13T12:00:45.685Z,101745.67
2018-09-13T12:03:15.421Z,101752.05
2018-09-13T12:05:44.892Z,101753.36
2018-09-13T12:08:14.617Z,101739.84
2018-09-13T12:10:44.321Z,101745.09
2018-09-13T12:13:14.015Z,101735.42
2018-09-13T12:15:43.752Z,101733.66
2018-09-13T12:18:13.415Z,101734.80
2018-09-13T12:20:42.871Z,101738.05
2018-09-13T12:23:12.529Z,101735.09
2018-09-13T12:25:42.782Z,101741.19
2018-09-13T12:28:12.933Z,101740.45
2018-09-13T12:30:42.499Z,101736.48
2018-09-13T12:33:12.002Z,101738.72
2018-09-13T12:35:41.611Z,101734.16
2018-09-13T12:38:12.268Z,101726.02
2018-09-13T12:40:41.867Z,101728.34
2018-09-13T12:43:11.377Z,101723.70
2018-09-13T12:45:41.056Z,101724.44
2018-09-13T12:48:10.641Z,101718.33
2018-09-13T12:50:40.270Z,101720.92
2018-09-13T12:53:09.771Z,101718.23
2018-09-13T12:55:44.365Z,101712.28
2018-09-13T12:58:13.918Z,101710.64
2018-09-13T13:00:43.341Z,101707.44
2018-09-13T13:03:12.960Z,101698.71
2018-09-13T13:05:43.257Z,101698.00
2018-09-13T13:08:12.745Z,101691.70
2018-09-13T13:10:42.249Z,101692.41
2018-09-13T13:13:12.312Z,101688.17
2018-09-13T13:15:42.036Z,101686.30
2018-09-13T13:18:11.604Z,101681.03
2018-09-13T13:20:41.240Z,101683.24
2018-09-13T13:23:10.721Z,101688.38
2018-09-13T13:25:40.243Z,101679.71
2018-09-13T13:28:09.771Z,101683.37
2018-09-13T13:30:39.368Z,101681.61
2018-09-13T13:33:08.921Z,101686.00
2018-09-13T13:35:38.621Z,101683.69
2018-09-13T13:38:08.177Z,101668.55
2018-09-13T13:40:37.796Z,101666.32
2018-09-13T13:43:07.224Z,101670.08
2018-09-13T13:45:36.726Z,101661.87
2018-09-13T13:48:06.352Z,101662.58
2018-09-13T13:50:36.028Z,101662.65
2018-09-13T13:53:05.548Z,101660.97
2018-09-13T13:55:35.241Z,101663.09
2018-09-13T13:58:05.656Z,101656.48
2018-09-13T14:00:35.405Z,101652.31
2018-09-13T14:03:04.882Z,101650.22
2018-09-13T14:05:34.355Z,101646.25
2018-09-13T14:08:03.895Z,101644.06
2018-09-13T14:10:33.397Z,101643.67
2018-09-13T14:13:02.951Z,101645.42
2018-09-13T14:15:32.557Z,101638.36
2018-09-13T14:18:02.041Z,101635.90
2018-09-13T14:20:31.708Z,101635.23
2018-09-13T14:23:01.424Z,101631.80
2018-09-13T14:25:31.029Z,101631.94
2018-09-13T14:28:00.527Z,101628.76
2018-09-13T14:30:30.007Z,101630.59
2018-09-13T14:32:59.618Z,101626.34
2018-09-13T14:35:29.162Z,101629.27
2018-09-13T14:37:58.896Z,101627.39
2018-09-13T14:40:28.337Z,101629.93
2018-09-13T14:42:57.958Z,101627.67
2018-09-13T14:45:28.010Z,101624.72
2018-09-13T14:47:58.214Z,101619.50
2018-09-13T14:50:27.876Z,101623.56
2018-09-13T14:52:57.384Z,101619.02
2018-09-13T14:55:27.005Z,101623.34
2018-09-13T14:57:56.599Z,101611.12
2018-09-13T15:00:26.096Z,101611.05
2018-09-13T15:02:55.615Z,101612.16
2018-09-13T15:05:25.125Z,101611.75
2018-09-13T15:07:54.619Z,101613.63
2018-09-13T15:10:24.121Z,101616.53
2018-09-13T15:12:53.832Z,101612.74
2018-09-13T15:15:23.547Z,101611.67
2018-09-13T15:17:52.992Z,101614.00
2018-09-13T15:20:22.676Z,101618.55
2018-09-13T15:22:52.241Z,101610.68
2018-09-13T15:25:21.786Z,101613.13
2018-09-13T15:27:51.250Z,101609.10
2018-09-13T15:30:20.752Z,101607.16
2018-09-13T15:32:50.290Z,101601.34
2018-09-13T15:35:19.753Z,101607.68
2018-09-13T15:37:49.806Z,101600.86
2018-09-13T15:40:19.383Z,101599.64
2018-09-13T15:42:48.947Z,101607.17
2018-09-13T15:45:18.760Z,101606.32
2018-09-13T15:47:48.226Z,101607.14
2018-09-13T15:50:17.870Z,101610.52
2018-09-13T15:52:47.594Z,101600.63
2018-09-13T15:55:17.163Z,101609.84
2018-09-13T15:57:46.670Z,101612.61
2018-09-13T16:00:16.212Z,101615.34
2018-09-13T16:02:45.860Z,101609.97
2018-09-13T16:05:15.374Z,101612.33
2018-09-13T16:07:44.968Z,101606.76
2018-09-13T16:10:14.403Z,101613.11
2018-09-13T16:12:44.070Z,101609.09
2018-09-13T16:15:13.619Z,101605.75
2018-09-13T16:17:43.145Z,101607.02
2018-09-13T16:20:12.729Z,101600.00
2018-09-13T16:22:42.524Z,101604.44
2018-09-13T16:25:11.968Z,101603.55
2018-09-13T16:27:41.487Z,101611.75
2018-09-13T16:30:10.958Z,101611.70
2018-09-13T16:32:40.616Z,101612.49
2018-09-13T16:35:10.081Z,101604.62
2018-09-13T16:37:44.930Z,101606.95
2018-09-13T16:40:19.570Z,101606.29
2018-09-13T16:42:54.615Z,101606.46
2018-09-13T16:45:29.049Z,101604.44
2018-09-13T16:48:00.935Z,101602.42
2018-09-13T16:50:30.457Z,101602.38
2018-09-13T16:53:00.099Z,101608.97
2018-09-13T16:55:29.609Z,101611.16
2018-09-13T16:57:59.021Z,101617.13
2018-09-13T17:00:29.060Z,101611.30
2018-09-13T17:02:58.580Z,101614.67
2018-09-13T17:05:28.149Z,101613.94
2018-09-13T17:07:57.745Z,101615.85
2018-09-13T17:10:27.354Z,101620.58
2018-09-13T17:12:56.828Z,101615.14
2018-09-13T17:15:26.450Z,101621.20
2018-09-13T17:17:55.852Z,101609.87
2018-09-13T17:20:25.520Z,101615.76
2018-09-13T17:22:55.144Z,101620.95
2018-09-13T17:25:24.610Z,101620.17
2018-09-13T17:27:54.099Z,101624.40
2018-09-13T17:30:23.623Z,101627.78
2018-09-13T17:32:53.142Z,101631.17
2018-09-13T17:35:22.618Z,101633.76
2018-09-13T17:37:52.246Z,101634.25
2018-09-13T17:40:21.881Z,101634.75
2018-09-13T17:42:51.568Z,101632.66
2018-09-13T17:45:21.473Z,101639.87
2018-09-13T17:47:51.535Z,101640.78
2018-09-13T17:50:21.565Z,101637.89
2018-09-13T17:52:51.192Z,101634.17
2018-09-13T17:55:20.739Z,101642.16
2018-09-13T17:57:50.351Z,101641.80
2018-09-13T18:00:20.165Z,101643.90
2018-09-13T18:02:49.924Z,101637.66
2018-09-13T18:05:19.582Z,101645.23
2018-09-13T18:07:50.152Z,101647.37
2018-09-13T18:10:19.891Z,101646.13
2018-09-13T18:12:49.449Z,101652.44
2018-09-13T18:15:19.016Z,101659.92
2018-09-13T18:17:48.553Z,101658.64
2018-09-13T18:20:18.109Z,101657.36
2018-09-13T18:22:47.617Z,101661.51
2018-09-13T18:25:17.174Z,101660.24
2018-09-13T18:27:46.688Z,101660.64
2018-09-13T18:30:16.275Z,101669.00
2018-09-13T18:32:45.781Z,101670.66
2018-09-13T18:35:15.473Z,101667.83
2018-09-13T18:37:45.071Z,101673.73
2018-09-13T18:40:14.660Z,101672.48
2018-09-13T18:42:44.181Z,101674.99
2018-09-13T18:45:13.782Z,101678.36
2018-09-13T18:47:43.334Z,101678.78
2018-09-13T18:50:12.838Z,101691.34
2018-09-13T18:52:42.662Z,101682.11
2018-09-13T18:55:12.145Z,101690.06
2018-09-13T18:57:42.008Z,101682.52
2018-09-13T19:00:11.538Z,101688.77
2018-09-13T19:02:41.009Z,101685.78
2018-09-13T19:05:10.460Z,101686.63
2018-09-13T19:07:39.911Z,101691.60
2018-09-13T19:10:08.961Z,101695.36
2018-09-13T19:12:38.538Z,101698.63
2018-09-13T19:15:08.070Z,101698.20
2018-09-13T19:17:37.578Z,101696.45
2018-09-13T19:20:07.078Z,101705.54
2018-09-13T19:22:36.554Z,101702.45
2018-09-13T19:25:06.104Z,101695.28
2018-09-13T19:27:35.580Z,101699.23
2018-09-13T19:30:05.228Z,101701.59
2018-09-13T19:32:34.693Z,101705.97
2018-09-13T19:35:04.156Z,101701.27
2018-09-13T19:37:33.623Z,101711.59
2018-09-13T19:40:03.091Z,101703.45
2018-09-13T19:42:32.574Z,101711.86
2018-09-13T19:45:02.021Z,101712.92
2018-09-13T19:47:31.514Z,101710.20
2018-09-13T19:50:01.029Z,101705.56
2018-09-13T19:52:30.557Z,101709.20
2018-09-13T19:55:00.112Z,101703.21
2018-09-13T19:57:29.612Z,101700.57
2018-09-13T19:59:59.090Z,101710.45
2018-09-13T20:02:28.566Z,101714.95
2018-09-13T20:04:58.165Z,101718.06
2018-09-13T20:07:28.011Z,101717.21
2018-09-13T20:09:57.507Z,101718.77
2018-09-13T20:12:26.989Z,101714.97
2018-09-13T20:14:56.975Z,101717.16
2018-09-13T20:17:26.361Z,101720.91
2018-09-13T20:19:55.822Z,101715.81
2018-09-13T20:22:25.313Z,101716.96
2018-09-13T20:24:54.786Z,101715.65
2018-09-13T20:27:24.257Z,101712.13
2018-09-13T20:29:53.730Z,101717.41
2018-09-13T20:32:23.214Z,101715.03
2018-09-13T20:34:52.687Z,101716.44
2018-09-13T20:37:22.185Z,101714.86
2018-09-13T20:39:51.842Z,101715.08
2018-09-13T20:42:21.324Z,101713.32
2018-09-13T20:44:50.780Z,101709.92
2018-09-13T20:47:20.177Z,101715.99
2018-09-13T20:49:49.741Z,101712.56
2018-09-13T20:52:19.161Z,101720.30
2018-09-13T20:54:48.742Z,101710.80
2018-09-13T20:57:18.306Z,101715.17
2018-09-13T20:59:47.746Z,101720.09
2018-09-13T21:02:17.253Z,101720.19
2018-09-13T21:04:47.022Z,101720.83
2018-09-13T21:07:17.118Z,101721.42
2018-09-13T21:09:46.683Z,101717.11
2018-09-13T21:12:16.155Z,101726.16
2018-09-13T21:14:45.651Z,101727.12
2018-09-13T21:17:15.331Z,101724.56
2018-09-13T21:19:44.724Z,101724.98
2018-09-13T21:22:14.248Z,101725.41
2018-09-13T21:24:43.756Z,101725.61
2018-09-13T21:27:13.246Z,101727.70
2018-09-13T21:29:42.761Z,101732.56
2018-09-13T21:32:12.279Z,101737.90
2018-09-13T21:34:41.781Z,101737.86
2018-09-13T21:37:11.279Z,101735.86
2018-09-13T21:39:40.771Z,101738.11
2018-09-13T21:42:10.285Z,101736.32
2018-09-13T21:44:39.813Z,101734.16
2018-09-13T21:47:09.297Z,101733.20
2018-09-13T21:49:38.773Z,101740.08
2018-09-13T21:52:08.293Z,101733.22
2018-09-13T21:54:37.775Z,101736.61
2018-09-13T21:57:07.260Z,101735.64
2018-09-13T21:59:36.784Z,101730.52
2018-09-13T22:02:06.553Z,101728.56
2018-09-13T22:04:36.057Z,101733.47
2018-09-13T22:07:05.503Z,101734.09
2018-09-13T22:09:34.977Z,101734.87
2018-09-13T22:12:04.914Z,101735.27
2018-09-13T22:14:34.371Z,101729.35
2018-09-13T22:17:03.854Z,101739.32
2018-09-13T22:19:33.295Z,101739.77
2018-09-13T22:22:02.711Z,101732.62
2018-09-13T22:24:32.164Z,101736.21
2018-09-13T22:27:01.591Z,101734.31
2018-09-13T22:29:31.162Z,101735.38
2018-09-13T22:32:00.638Z,101741.80
2018-09-13T22:34:30.078Z,101740.45
2018-09-13T22:36:59.570Z,101737.12
2018-09-13T22:39:28.972Z,101737.20
2018-09-13T22:41:58.480Z,101735.38
2018-09-13T22:44:28.000Z,101739.04
2018-09-13T22:46:57.478Z,101741.77
2018-09-13T22:49:26.986Z,101739.67
2018-09-13T22:51:56.536Z,101731.70
2018-09-13T22:54:25.961Z,101734.89
2018-09-13T22:56:55.460Z,101733.73
2018-09-13T22:59:24.988Z,101737.84
2018-09-13T23:01:54.417Z,101735.89
2018-09-13T23:04:23.900Z,101735.02
2018-09-13T23:06:53.657Z,101734.53
2018-09-13T23:09:23.121Z,101730.58
2018-09-13T23:11:52.565Z,101730.62
2018-09-13T23:14:22.064Z,101733.71
2018-09-13T23:16:51.556Z,101735.83
2018-09-13T23:19:20.971Z,101737.02
2018-09-13T23:21:50.454Z,101734.89
2018-09-13T23:24:19.914Z,101735.66
2018-09-13T23:26:49.371Z,101733.57
2018-09-13T23:29:18.731Z,101739.03
2018-09-13T23:31:48.288Z,101736.12
2018-09-13T23:34:17.740Z,101735.21
2018-09-13T23:36:47.174Z,101739.83
2018-09-13T23:39:16.763Z,101736.41
2018-09-13T23:41:46.118Z,101735.47
2018-09-13T23:44:15.576Z,101741.61
2018-09-13T23:46:45.039Z,101739.04
2018-09-13T23:49:14.519Z,101739.63
2018-09-13T23:51:43.961Z,101737.08
2018-09-13T23:54:13.409Z,101730.60
2018-09-13T23:56:42.850Z,101729.48
2018-09-13T23:59:12.254Z,101729.28
